createdAt,value
2022-09-10T00:00:07.795Z,18.78
2022-09-10T00:05:12.689Z,18.78
2022-09-10T00:10:15.497Z,18.73
2022-09-10T00:15:19.060Z,18.71
2022-09-10T00:20:21.900Z,18.71
2022-09-10T00:25:24.613Z,18.73
2022-09-10T00:30:28.080Z,18.67
2022-09-10T00:35:36.366Z,18.64
2022-09-10T00:40:41.155Z,18.58
2022-09-10T00:45:46.716Z,18.55
2022-09-10T00:50:51.985Z,18.49
2022-09-10T00:55:59.994Z,18.44
2022-09-10T01:01:03.390Z,18.42
2022-09-10T01:06:06.642Z,18.40
2022-09-10T01:11:58.757Z,18.38
2022-09-10T01:17:35.165Z,18.36
2022-09-10T01:23:25.480Z,18.28
2022-09-10T01:28:54.718Z,18.11
2022-09-10T01:34:05.809Z,17.82
2022-09-10T01:39:08.807Z,17.59
2022-09-10T01:44:41.717Z,17.37
2022-09-10T01:50:09.183Z,17.22
2022-09-10T01:55:22.636Z,17.12
2022-09-10T02:00:26.719Z,17.08
2022-09-10T02:05:35.231Z,17.04
2022-09-10T02:11:06.517Z,17.05
2022-09-10T02:16:14.017Z,17.06
2022-09-10T02:21:17.317Z,17.04
2022-09-10T02:26:20.287Z,16.98
2022-09-10T02:31:23.999Z,16.91
2022-09-10T02:36:26.837Z,16.85
2022-09-10T02:41:34.036Z,16.77
2022-09-10T02:46:36.686Z,16.69
2022-09-10T02:51:41.791Z,16.57
2022-09-10T02:56:44.486Z,16.50
2022-09-10T03:01:48.410Z,16.43
2022-09-10T03:06:55.110Z,16.35
2022-09-10T03:11:59.732Z,16.33
2022-09-10T03:17:03.873Z,16.31
2022-09-10T03:22:06.760Z,16.29
2022-09-10T03:27:10.255Z,16.31
2022-09-10T03:32:12.975Z,16.31
2022-09-10T03:37:16.974Z,16.28
2022-09-10T03:42:19.816Z,16.28
2022-09-10T03:47:22.768Z,16.27
2022-09-10T03:52:26.591Z,16.26
2022-09-10T03:57:31.219Z,16.23
2022-09-10T04:02:33.922Z,16.21
2022-09-10T04:07:36.938Z,16.18
2022-09-10T04:12:39.823Z,16.17
2022-09-10T04:17:42.733Z,16.15
2022-09-10T04:22:46.741Z,16.12
2022-09-10T04:27:50.093Z,16.10
2022-09-10T04:32:53.077Z,16.08
2022-09-10T04:37:55.893Z,16.08
2022-09-10T04:42:59.254Z,16.06
2022-09-10T04:48:06.685Z,16.02
2022-09-10T04:53:10.118Z,16.04
2022-09-10T04:58:13.524Z,16.05
2022-09-10T05:03:16.322Z,16.04
2022-09-10T05:08:19.231Z,16.07
2022-09-10T05:13:22.329Z,16.15
2022-09-10T05:18:28.321Z,16.21
2022-09-10T05:23:31.789Z,16.29
2022-09-10T05:28:34.532Z,16.35
2022-09-10T05:33:37.329Z,16.46
2022-09-10T05:38:40.353Z,16.60
2022-09-10T05:43:44.348Z,16.76
2022-09-10T05:48:47.182Z,16.89
2022-09-10T05:53:50.213Z,16.98
2022-09-10T05:58:53.252Z,17.02
2022-09-10T06:03:56.263Z,17.01
2022-09-10T06:08:59.975Z,16.98
2022-09-10T06:14:02.788Z,17.05
2022-09-10T06:19:05.578Z,17.12
2022-09-10T06:24:08.630Z,17.20
2022-09-10T06:29:11.790Z,17.38
2022-09-10T06:34:15.367Z,17.60
2022-09-10T06:39:18.446Z,17.72
2022-09-10T06:44:22.532Z,17.81
2022-09-10T06:49:25.401Z,17.80
2022-09-10T06:54:28.178Z,17.74
2022-09-10T06:59:31.606Z,17.78
2022-09-10T07:04:34.364Z,17.81
2022-09-10T07:09:37.051Z,17.91
2022-09-10T07:14:39.747Z,18.04
2022-09-10T07:19:42.525Z,18.19
2022-09-10T07:24:46.081Z,18.34
2022-09-10T07:29:49.421Z,18.39
2022-09-10T07:34:52.406Z,18.37
2022-09-10T07:39:55.219Z,18.40
2022-09-10T07:44:58.178Z,18.38
2022-09-10T07:50:00.924Z,18.46
2022-09-10T07:55:04.742Z,18.51
2022-09-10T08:00:15.180Z,18.58
2022-09-10T08:05:18.164Z,18.70
2022-09-10T08:10:21.391Z,18.86
2022-09-10T08:15:24.276Z,18.90
2022-09-10T08:20:30.653Z,19.01
2022-09-10T08:25:34.726Z,19.04
2022-09-10T08:30:37.544Z,19.06
2022-09-10T08:35:40.258Z,19.21
2022-09-10T08:40:44.760Z,19.39
2022-09-10T08:45:52.012Z,19.53
2022-09-10T08:51:15.994Z,19.44
2022-09-10T08:56:23.792Z,19.30
2022-09-10T09:01:53.172Z,19.22
2022-09-10T09:07:03.765Z,19.22
2022-09-10T09:12:18.287Z,19.26
2022-09-10T09:17:55.861Z,19.29
2022-09-10T09:23:18.447Z,19.34
2022-09-10T09:29:01.278Z,19.41
2022-09-10T09:34:39.745Z,19.57
2022-09-10T09:40:13.618Z,19.75
2022-09-10T09:45:36.434Z,19.86
2022-09-10T09:50:42.851Z,19.94
2022-09-10T09:55:56.267Z,20.10
2022-09-10T10:01:09.139Z,20.27
2022-09-10T10:06:12.682Z,20.39
2022-09-10T10:11:20.693Z,20.47
2022-09-10T10:16:36.567Z,20.71
2022-09-10T10:21:39.767Z,21.20
2022-09-10T10:26:44.163Z,21.74
2022-09-10T10:31:53.638Z,22.24
2022-09-10T10:37:05.188Z,22.60
2022-09-10T10:42:35.589Z,23.00
2022-09-10T10:48:10.068Z,23.45
2022-09-10T10:53:31.347Z,24.21
2022-09-10T10:59:09.386Z,25.03
2022-09-10T11:04:29.387Z,25.62
2022-09-10T11:09:51.784Z,26.03
2022-09-10T11:15:24.503Z,26.09
2022-09-10T11:20:42.700Z,25.99
2022-09-10T11:26:03.047Z,25.83
2022-09-10T11:31:19.999Z,25.80
2022-09-10T11:36:31.759Z,25.78
2022-09-10T11:41:35.969Z,25.81
2022-09-10T11:46:46.345Z,25.78
2022-09-10T11:51:50.276Z,25.88
2022-09-10T11:57:08.505Z,25.74
2022-09-10T12:02:40.978Z,25.33
2022-09-10T12:07:49.774Z,25.17
2022-09-10T12:12:53.400Z,24.99
2022-09-10T12:18:18.758Z,24.93
2022-09-10T12:23:35.444Z,24.94
2022-09-10T12:28:53.027Z,24.95
2022-09-10T12:33:57.757Z,24.98
2022-09-10T12:39:27.328Z,24.63
2022-09-10T12:44:36.385Z,24.24
2022-09-10T12:49:55.118Z,24.08
2022-09-10T12:55:36.151Z,23.89
2022-09-10T13:00:54.426Z,23.65
2022-09-10T13:06:04.313Z,23.46
2022-09-10T13:11:19.292Z,23.42
2022-09-10T13:16:40.614Z,23.30
2022-09-10T13:21:43.339Z,23.16
2022-09-10T13:26:52.599Z,23.00
2022-09-10T13:32:20.432Z,22.84
2022-09-10T13:37:46.778Z,22.70
2022-09-10T13:43:04.831Z,22.62
2022-09-10T13:48:25.815Z,22.76
2022-09-10T13:53:30.169Z,23.03
2022-09-10T13:58:37.392Z,23.22
2022-09-10T14:03:45.387Z,23.39
2022-09-10T14:09:06.464Z,23.53
2022-09-10T14:14:18.557Z,23.63
2022-09-10T14:19:30.707Z,23.74
2022-09-10T14:24:50.584Z,23.86
2022-09-10T14:29:59.038Z,23.89
2022-09-10T14:35:44.560Z,23.88
2022-09-10T14:40:48.257Z,23.87
2022-09-10T14:45:51.832Z,23.94
2022-09-10T14:51:18.223Z,24.15
2022-09-10T14:56:38.038Z,24.35
2022-09-10T15:01:51.582Z,24.54
2022-09-10T15:07:00.110Z,24.83
2022-09-10T15:12:15.040Z,25.08
2022-09-10T15:17:18.765Z,25.20
2022-09-10T15:22:31.656Z,25.33
2022-09-10T15:27:34.337Z,25.36
2022-09-10T15:32:37.170Z,25.45
2022-09-10T15:37:40.638Z,25.51
2022-09-10T15:42:43.500Z,25.63
2022-09-10T15:47:46.234Z,25.71
2022-09-10T15:52:48.978Z,25.60
2022-09-10T15:57:53.104Z,25.13
2022-09-10T16:02:56.436Z,24.58
2022-09-10T16:07:59.143Z,23.96
2022-09-10T16:13:02.074Z,23.41
2022-09-10T16:18:05.131Z,22.90
2022-09-10T16:23:07.935Z,22.53
2022-09-10T16:28:10.708Z,22.22
2022-09-10T16:33:14.348Z,21.96
2022-09-10T16:38:17.197Z,21.72
2022-09-10T16:43:20.142Z,21.50
2022-09-10T16:48:22.952Z,21.27
2022-09-10T16:53:26.341Z,21.05
2022-09-10T16:58:33.977Z,20.84
2022-09-10T17:03:49.898Z,20.64
2022-09-10T17:08:57.923Z,20.42
2022-09-10T17:14:04.176Z,20.22
2022-09-10T17:19:11.964Z,20.05
2022-09-10T17:24:14.880Z,19.88
2022-09-10T17:29:20.631Z,19.74
2022-09-10T17:34:24.650Z,19.58
2022-09-10T17:39:29.341Z,19.44
2022-09-10T17:44:32.132Z,19.31
2022-09-10T17:49:34.881Z,19.17
2022-09-10T17:54:37.863Z,19.06
2022-09-10T17:59:40.890Z,18.94
2022-09-10T18:04:43.654Z,18.81
2022-09-10T18:09:47.612Z,18.70
2022-09-10T18:14:50.455Z,18.61
2022-09-10T18:19:54.091Z,18.49
2022-09-10T18:24:56.771Z,18.42
2022-09-10T18:30:00.414Z,18.29
2022-09-10T18:35:03.530Z,18.23
2022-09-10T18:40:08.040Z,18.17
2022-09-10T18:45:11.042Z,18.11
2022-09-10T18:50:14.157Z,18.11
2022-09-10T18:55:17.785Z,18.07
2022-09-10T19:00:20.539Z,18.06
2022-09-10T19:05:23.277Z,18.01
2022-09-10T19:10:25.999Z,17.92
2022-09-10T19:15:28.880Z,17.82
2022-09-10T19:20:31.704Z,17.74
2022-09-10T19:25:34.452Z,17.72
2022-09-10T19:30:40.185Z,17.66
2022-09-10T19:35:45.479Z,17.62
2022-09-10T19:40:48.420Z,17.54
2022-09-10T19:45:56.202Z,17.45
2022-09-10T19:51:00.318Z,17.32
2022-09-10T19:56:09.054Z,17.27
2022-09-10T20:01:15.852Z,17.25
2022-09-10T20:06:21.721Z,17.27
2022-09-10T20:11:32.382Z,17.28
2022-09-10T20:16:42.558Z,17.25
2022-09-10T20:21:47.827Z,17.19
2022-09-10T20:26:50.940Z,17.13
2022-09-10T20:31:53.910Z,17.11
2022-09-10T20:36:56.831Z,17.12
2022-09-10T20:42:00.526Z,17.11
2022-09-10T20:47:03.667Z,17.08
2022-09-10T20:52:07.155Z,17.04
2022-09-10T20:57:12.058Z,16.99
2022-09-10T21:02:14.886Z,16.95
2022-09-10T21:07:17.655Z,16.92
2022-09-10T21:12:20.488Z,16.91
2022-09-10T21:17:23.295Z,16.87
2022-09-10T21:22:26.081Z,16.80
2022-09-10T21:27:29.320Z,16.75
2022-09-10T21:32:32.119Z,16.68
2022-09-10T21:37:35.003Z,16.68
2022-09-10T21:42:37.811Z,16.66
2022-09-10T21:47:41.256Z,16.65
2022-09-10T21:52:43.964Z,16.62
2022-09-10T21:57:47.144Z,16.63
2022-09-10T22:02:51.186Z,16.60
2022-09-10T22:07:54.677Z,16.52
2022-09-10T22:12:57.632Z,16.41
2022-09-10T22:18:00.344Z,16.30
2022-09-10T22:23:04.419Z,16.24
2022-09-10T22:28:07.388Z,16.25
2022-09-10T22:33:11.010Z,16.26
2022-09-10T22:38:19.079Z,16.19
2022-09-10T22:43:22.358Z,16.13
2022-09-10T22:48:25.093Z,16.08
2022-09-10T22:53:27.849Z,16.04
2022-09-10T22:58:33.063Z,16.01
2022-09-10T23:03:36.695Z,15.88
2022-09-10T23:08:41.570Z,15.83
2022-09-10T23:13:47.029Z,15.77
2022-09-10T23:18:55.857Z,15.68
2022-09-10T23:24:03.417Z,15.61
2022-09-10T23:29:06.750Z,15.55
2022-09-10T23:34:16.684Z,15.48
2022-09-10T23:39:22.542Z,15.42
2022-09-10T23:44:26.256Z,15.35
2022-09-10T23:49:29.013Z,15.30
2022-09-10T23:54:31.881Z,15.23
2022-09-10T23:59:34.791Z,15.17
